createdAt,value
2023-05-20T00:01:22.118Z,92.20
2023-05-20T00:04:02.697Z,91.90
2023-05-20T00:06:50.157Z,91.80
2023-05-20T00:09:29.982Z,91.60
2023-05-20T00:12:17.124Z,91.80
2023-05-20T00:14:56.994Z,91.50
2023-05-20T00:17:44.059Z,91.60
2023-05-20T00:21:09.064Z,91.60
2023-05-20T00:23:56.037Z,91.60
2023-05-20T00:26:43.144Z,91.60
2023-05-20T00:29:23.024Z,91.60
2023-05-20T00:32:17.140Z,91.30
2023-05-20T00:35:05.030Z,91.40
2023-05-20T00:37:45.259Z,91.30
2023-05-20T00:40:32.037Z,91.60
2023-05-20T00:43:12.144Z,91.50
2023-05-20T00:46:02.129Z,91.60
2023-05-20T00:48:49.185Z,91.50
2023-05-20T00:51:36.041Z,91.60
2023-05-20T00:54:17.143Z,91.60
2023-05-20T00:57:04.129Z,91.50
2023-05-20T00:59:51.071Z,91.30
2023-05-20T01:02:31.489Z,91.40
2023-05-20T01:05:18.063Z,91.40
2023-05-20T01:08:05.339Z,91.50
2023-05-20T01:10:51.096Z,91.50
2023-05-20T01:13:40.198Z,91.50
2023-05-20T01:16:21.242Z,91.50
2023-05-20T01:19:09.203Z,91.60
2023-05-20T01:21:50.086Z,91.60
2023-05-20T01:24:37.760Z,91.70
2023-05-20T01:27:18.116Z,91.70
2023-05-20T01:30:12.076Z,91.80
2023-05-20T01:33:03.169Z,91.70
2023-05-20T01:35:43.266Z,91.60
2023-05-20T01:38:31.168Z,91.60
2023-05-20T01:41:12.379Z,91.70
2023-05-20T01:43:59.227Z,91.90
2023-05-20T01:46:40.327Z,91.80
2023-05-20T01:49:27.190Z,91.90
2023-05-20T01:52:07.332Z,91.80
2023-05-20T01:54:58.283Z,91.70
2023-05-20T01:57:38.366Z,91.70
2023-05-20T02:00:25.142Z,91.70
2023-05-20T02:03:06.336Z,91.60
2023-05-20T02:05:53.180Z,91.80
2023-05-20T02:08:40.220Z,91.90
2023-05-20T02:11:27.317Z,91.80
2023-05-20T02:14:07.449Z,91.80
2023-05-20T02:16:54.328Z,91.60
2023-05-20T02:20:08.143Z,91.40
2023-05-20T02:22:48.504Z,91.40
2023-05-20T02:25:35.414Z,91.30
2023-05-20T02:28:24.281Z,91.20
2023-05-20T02:31:26.504Z,91.10
2023-05-20T02:34:13.325Z,90.90
2023-05-20T02:37:00.150Z,91.00
2023-05-20T02:39:47.329Z,91.00
2023-05-20T02:42:27.208Z,91.10
2023-05-20T02:45:14.255Z,91.00
2023-05-20T02:47:54.222Z,90.90
2023-05-20T02:50:41.265Z,90.90
2023-05-20T02:53:21.501Z,90.90
2023-05-20T02:56:08.215Z,91.00
2023-05-20T02:58:48.664Z,91.00
2023-05-20T03:01:36.236Z,90.90
2023-05-20T03:04:16.410Z,90.90
2023-05-20T03:07:04.272Z,90.80
2023-05-20T03:09:44.347Z,90.80
2023-05-20T03:12:33.306Z,90.80
2023-05-20T03:15:13.592Z,90.50
2023-05-20T03:18:00.300Z,90.60
2023-05-20T03:20:41.721Z,90.40
2023-05-20T03:23:29.195Z,90.30
2023-05-20T03:26:09.429Z,90.30
2023-05-20T03:28:56.233Z,90.30
2023-05-20T03:31:52.604Z,89.30
2023-05-20T03:34:39.489Z,90.00
2023-05-20T03:37:20.848Z,89.90
2023-05-20T03:40:07.534Z,89.40
2023-05-20T03:42:50.085Z,89.00
2023-05-20T03:45:37.767Z,88.50
2023-05-20T03:48:24.560Z,88.10
2023-05-20T03:51:04.790Z,88.20
2023-05-20T03:53:51.536Z,88.30
2023-05-20T03:56:38.659Z,88.10
2023-05-20T03:59:18.620Z,87.50
2023-05-20T04:02:05.815Z,87.70
2023-05-20T04:04:45.505Z,87.30
2023-05-20T04:07:33.841Z,87.20
2023-05-20T04:10:15.618Z,87.30
2023-05-20T04:13:04.807Z,86.40
2023-05-20T04:15:45.533Z,86.20
2023-05-20T04:19:23.722Z,85.40
2023-05-20T04:22:17.564Z,85.50
2023-05-20T04:25:12.638Z,84.60
2023-05-20T04:27:59.995Z,84.00
2023-05-20T04:30:53.606Z,82.00
2023-05-20T04:33:40.715Z,81.50
2023-05-20T04:36:22.631Z,81.90
2023-05-20T04:39:10.745Z,80.90
2023-05-20T04:41:51.609Z,80.20
2023-05-20T04:44:41.733Z,79.70
2023-05-20T04:47:22.957Z,79.40
2023-05-20T04:50:13.553Z,78.80
2023-05-20T04:52:54.611Z,77.60
2023-05-20T04:55:41.753Z,77.70
2023-05-20T04:58:23.620Z,77.60
2023-05-20T05:01:10.811Z,77.50
2023-05-20T05:03:52.697Z,76.80
2023-05-20T05:09:06.646Z,75.50
2023-05-20T05:11:48.858Z,76.20
2023-05-20T05:14:36.657Z,75.90
2023-05-20T05:17:16.748Z,75.30
2023-05-20T05:20:03.646Z,75.40
2023-05-20T05:22:43.731Z,75.40
2023-05-20T05:25:31.015Z,75.40
2023-05-20T05:28:17.652Z,74.90
2023-05-20T05:31:05.571Z,74.90
2023-05-20T05:33:45.632Z,74.90
2023-05-20T05:36:33.209Z,74.20
2023-05-20T05:39:13.669Z,74.40
2023-05-20T05:42:01.018Z,74.70
2023-05-20T05:44:41.728Z,73.50
2023-05-20T05:47:32.799Z,72.80
2023-05-20T05:50:12.724Z,72.70
2023-05-20T05:52:59.766Z,72.40
2023-05-20T05:55:41.771Z,72.90
2023-05-20T05:58:29.875Z,71.80
2023-05-20T06:01:12.781Z,71.70
2023-05-20T06:03:53.042Z,70.90
2023-05-20T06:06:39.744Z,71.30
2023-05-20T06:09:26.848Z,70.80
2023-05-20T06:12:07.975Z,70.90
2023-05-20T06:14:54.786Z,71.00
2023-05-20T06:17:34.676Z,70.90
2023-05-20T06:20:21.884Z,70.80
2023-05-20T06:23:01.733Z,70.60
2023-05-20T06:25:59.814Z,70.90
2023-05-20T06:28:39.805Z,70.10
2023-05-20T06:31:33.775Z,68.90
2023-05-20T06:34:20.943Z,69.10
2023-05-20T06:37:00.809Z,68.30
2023-05-20T06:39:51.687Z,68.90
2023-05-20T06:42:31.815Z,67.40
2023-05-20T06:45:20.473Z,67.10
2023-05-20T06:48:03.832Z,67.50
2023-05-20T06:50:51.889Z,65.90
2023-05-20T06:53:31.765Z,66.40
2023-05-20T06:56:18.897Z,66.10
2023-05-20T06:58:58.722Z,64.90
2023-05-20T07:01:41.315Z,65.30
2023-05-20T07:04:27.757Z,63.90
2023-05-20T07:07:17.194Z,63.20
2023-05-20T07:09:56.948Z,60.80
2023-05-20T07:12:44.857Z,60.70
2023-05-20T07:15:24.895Z,60.40
2023-05-20T07:18:12.846Z,60.00
2023-05-20T07:20:58.865Z,60.50
2023-05-20T07:24:08.781Z,59.40
2023-05-20T07:26:49.037Z,58.90
2023-05-20T07:29:35.769Z,58.20
2023-05-20T07:32:24.083Z,58.10
2023-05-20T07:35:03.970Z,57.20
2023-05-20T07:37:51.102Z,56.00
2023-05-20T07:40:30.792Z,55.70
2023-05-20T07:43:17.966Z,54.50
2023-05-20T07:45:57.871Z,54.60
2023-05-20T07:48:45.401Z,54.30
2023-05-20T07:51:25.806Z,53.80
2023-05-20T07:54:15.536Z,52.30
2023-05-20T07:56:58.843Z,51.20
2023-05-20T07:59:45.836Z,51.20
2023-05-20T08:02:27.155Z,52.00
2023-05-20T08:05:13.792Z,53.30
2023-05-20T08:07:54.067Z,53.20
2023-05-20T08:10:43.904Z,53.60
2023-05-20T08:13:24.020Z,53.00
2023-05-20T08:16:12.841Z,53.20
2023-05-20T08:18:53.072Z,52.90
2023-05-20T08:21:39.933Z,51.80
2023-05-20T08:24:19.935Z,52.00
2023-05-20T08:27:06.997Z,52.10
2023-05-20T08:29:46.962Z,52.30
2023-05-20T08:32:33.864Z,51.00
2023-05-20T08:35:14.037Z,51.10
2023-05-20T08:38:01.865Z,51.60
2023-05-20T08:40:42.034Z,51.60
2023-05-20T08:43:29.850Z,50.10
2023-05-20T08:46:18.323Z,49.50
2023-05-20T08:49:00.877Z,49.90
2023-05-20T08:51:48.402Z,50.40
2023-05-20T08:54:30.899Z,50.30
2023-05-20T08:57:20.651Z,50.10
2023-05-20T09:00:00.912Z,49.20
2023-05-20T09:02:48.016Z,48.10
2023-05-20T09:05:28.961Z,46.70
2023-05-20T09:08:17.003Z,47.20
2023-05-20T09:10:58.980Z,46.00
2023-05-20T09:13:52.939Z,45.90
2023-05-20T09:16:40.104Z,44.60
2023-05-20T09:19:21.289Z,45.10
2023-05-20T09:22:03.958Z,44.80
2023-05-20T09:24:50.903Z,44.30
2023-05-20T09:27:39.075Z,43.90
2023-05-20T09:30:20.899Z,43.00
2023-05-20T09:33:09.524Z,41.60
2023-05-20T09:35:49.067Z,42.40
2023-05-20T09:38:38.247Z,41.10
2023-05-20T09:41:19.041Z,41.40
2023-05-20T09:44:06.986Z,40.40
2023-05-20T09:46:47.978Z,38.40
2023-05-20T09:49:29.008Z,38.20
2023-05-20T09:52:17.651Z,38.40
2023-05-20T09:54:59.206Z,37.70
2023-05-20T10:00:33.192Z,37.40
2023-05-20T10:03:13.135Z,37.50
2023-05-20T10:06:03.193Z,36.50
2023-05-20T10:09:01.992Z,35.20
2023-05-20T10:11:49.102Z,36.20
2023-05-20T10:14:43.957Z,36.40
2023-05-20T10:17:24.420Z,35.50
2023-05-20T10:20:14.367Z,35.20
2023-05-20T10:23:00.882Z,34.20
2023-05-20T10:25:48.047Z,35.00
2023-05-20T10:28:45.979Z,34.10
2023-05-20T10:31:35.458Z,34.80
2023-05-20T10:34:20.992Z,35.60
2023-05-20T10:37:08.093Z,34.70
2023-05-20T10:39:48.091Z,35.20
2023-05-20T10:42:35.267Z,35.20
2023-05-20T10:45:16.105Z,35.50
2023-05-20T10:47:57.548Z,34.80
2023-05-20T10:50:51.188Z,34.20
2023-05-20T10:53:45.220Z,35.10
2023-05-20T10:56:26.045Z,35.60
2023-05-20T10:59:20.043Z,35.90
2023-05-20T11:02:02.547Z,35.40
2023-05-20T11:04:49.077Z,35.70
2023-05-20T11:07:37.274Z,36.40
2023-05-20T11:10:18.053Z,36.40
2023-05-20T11:13:05.295Z,37.20
2023-05-20T11:15:45.075Z,37.50
2023-05-20T11:18:35.239Z,38.60
2023-05-20T11:21:15.171Z,38.60
2023-05-20T11:24:02.250Z,38.10
2023-05-20T11:26:43.089Z,38.40
2023-05-20T11:29:32.351Z,38.60
2023-05-20T11:32:19.199Z,38.90
2023-05-20T11:34:59.174Z,39.00
2023-05-20T11:37:46.114Z,39.20
2023-05-20T11:40:38.923Z,39.50
2023-05-20T11:43:30.098Z,38.70
2023-05-20T11:46:18.229Z,40.10
2023-05-20T11:49:08.656Z,39.50
2023-05-20T11:51:56.114Z,38.90
2023-05-20T11:54:36.613Z,38.30
2023-05-20T11:57:25.216Z,39.40
2023-05-20T12:00:13.258Z,39.60
2023-05-20T12:02:54.177Z,39.50
2023-05-20T12:05:41.288Z,40.00
2023-05-20T12:08:21.117Z,39.80
2023-05-20T12:11:08.302Z,39.90
2023-05-20T12:13:48.113Z,39.60
2023-05-20T12:16:35.440Z,40.10
2023-05-20T12:19:16.219Z,40.00
2023-05-20T12:22:03.264Z,40.10
2023-05-20T12:24:43.165Z,40.40
2023-05-20T12:27:30.989Z,41.80
2023-05-20T12:30:12.163Z,43.10
2023-05-20T12:32:59.397Z,43.70
2023-05-20T12:35:49.272Z,44.10
2023-05-20T12:38:43.278Z,45.00
2023-05-20T12:41:30.282Z,45.90
2023-05-20T12:44:10.345Z,46.90
2023-05-20T12:46:57.343Z,47.70
2023-05-20T12:49:37.204Z,48.60
2023-05-20T12:52:22.413Z,48.70
2023-05-20T12:55:10.206Z,50.10
2023-05-20T12:57:57.369Z,49.90
2023-05-20T13:00:38.298Z,50.00
2023-05-20T13:03:25.390Z,50.30
2023-05-20T13:06:06.362Z,50.80
2023-05-20T13:08:46.578Z,51.20
2023-05-20T13:11:33.199Z,50.50
2023-05-20T13:14:21.753Z,51.00
2023-05-20T13:17:02.257Z,51.50
2023-05-20T13:19:49.411Z,51.50
2023-05-20T13:22:29.285Z,52.00
2023-05-20T13:25:16.360Z,52.50
2023-05-20T13:27:56.241Z,52.80
2023-05-20T13:30:43.385Z,53.20
2023-05-20T13:33:31.298Z,53.30
2023-05-20T13:36:11.381Z,53.50
2023-05-20T13:38:58.243Z,54.00
2023-05-20T13:41:39.357Z,53.90
2023-05-20T13:44:26.209Z,53.50
2023-05-20T13:47:06.413Z,53.70
2023-05-20T13:49:53.370Z,54.20
2023-05-20T13:52:40.338Z,54.50
2023-05-20T13:55:27.393Z,54.60
2023-05-20T13:58:07.263Z,54.70
2023-05-20T14:00:54.650Z,54.80
2023-05-20T14:03:34.349Z,54.80
2023-05-20T14:06:21.476Z,55.10
2023-05-20T14:09:03.361Z,55.30
2023-05-20T14:11:51.477Z,55.40
2023-05-20T14:14:31.382Z,55.90
2023-05-20T14:17:18.719Z,56.00
2023-05-20T14:19:58.429Z,56.40
2023-05-20T14:22:45.538Z,56.90
2023-05-20T14:25:25.353Z,57.20
2023-05-20T14:28:12.453Z,57.30
2023-05-20T14:30:52.311Z,56.90
2023-05-20T14:33:39.536Z,57.30
2023-05-20T14:36:19.271Z,57.60
2023-05-20T14:39:06.561Z,57.80
2023-05-20T14:41:46.374Z,57.90
2023-05-20T14:44:33.421Z,58.10
2023-05-20T14:47:13.331Z,58.50
2023-05-20T14:49:53.572Z,58.30
2023-05-20T14:52:40.344Z,58.20
2023-05-20T14:55:27.511Z,58.30
2023-05-20T14:58:07.357Z,58.50
2023-05-20T15:01:01.414Z,58.50
2023-05-20T15:03:48.519Z,58.40
2023-05-20T15:06:28.409Z,58.50
2023-05-20T15:09:15.465Z,58.70
2023-05-20T15:11:55.413Z,58.60
2023-05-20T15:14:42.462Z,58.60
2023-05-20T15:17:23.496Z,58.70
2023-05-20T15:20:10.456Z,58.90
2023-05-20T15:22:54.345Z,59.30
2023-05-20T15:25:34.776Z,59.50
2023-05-20T15:28:21.466Z,59.40
2023-05-20T15:31:08.474Z,59.40
2023-05-20T15:33:55.528Z,59.60
2023-05-20T15:36:35.676Z,59.10
2023-05-20T15:39:22.378Z,59.10
2023-05-20T15:42:03.407Z,59.20
2023-05-20T15:44:51.470Z,59.10
2023-05-20T15:47:31.521Z,59.30
2023-05-20T15:50:18.434Z,59.40
2023-05-20T15:52:58.668Z,59.20
2023-05-20T15:55:45.376Z,59.10
2023-05-20T15:58:25.660Z,58.90
2023-05-20T16:01:13.430Z,58.80
2023-05-20T16:03:56.874Z,58.30
2023-05-20T16:06:44.514Z,58.50
2023-05-20T16:09:31.437Z,58.60
2023-05-20T16:12:18.641Z,58.80
2023-05-20T16:14:58.502Z,58.60
2023-05-20T16:17:45.592Z,58.50
2023-05-20T16:20:25.454Z,57.90
2023-05-20T16:23:12.616Z,57.90
2023-05-20T16:28:54.509Z,57.90
2023-05-20T16:31:48.532Z,58.00
2023-05-20T16:34:35.570Z,57.50
2023-05-20T16:37:16.505Z,57.90
2023-05-20T16:40:04.321Z,57.80
2023-05-20T16:42:46.616Z,58.00
2023-05-20T16:45:33.656Z,58.30
2023-05-20T16:48:20.562Z,58.20
2023-05-20T16:51:00.868Z,58.60
2023-05-20T16:53:47.539Z,58.40
2023-05-20T16:56:35.579Z,58.50
2023-05-20T16:59:24.941Z,58.70
2023-05-20T17:02:04.546Z,58.80
2023-05-20T17:04:51.961Z,59.00
2023-05-20T17:07:31.551Z,59.00
2023-05-20T17:10:18.599Z,58.80
2023-05-20T17:12:58.494Z,59.10
2023-05-20T17:15:45.709Z,59.40
2023-05-20T17:18:25.582Z,59.10
2023-05-20T17:21:14.439Z,59.40
2023-05-20T17:23:55.596Z,59.10
2023-05-20T17:26:42.662Z,59.00
2023-05-20T17:29:22.572Z,59.20
2023-05-20T17:32:16.517Z,59.50
2023-05-20T17:35:03.612Z,59.50
2023-05-20T17:37:43.628Z,59.30
2023-05-20T17:40:30.618Z,59.50
2023-05-20T17:43:10.642Z,59.50
2023-05-20T17:45:57.546Z,59.80
2023-05-20T17:48:37.666Z,60.00
2023-05-20T17:51:24.591Z,59.60
2023-05-20T17:54:04.677Z,60.10
2023-05-20T17:56:54.665Z,60.10
2023-05-20T17:59:43.544Z,60.10
2023-05-20T18:02:30.749Z,60.40
2023-05-20T18:05:11.649Z,60.50
2023-05-20T18:07:58.687Z,60.60
2023-05-20T18:10:38.587Z,60.60
2023-05-20T18:13:25.850Z,61.60
2023-05-20T18:16:05.724Z,60.80
2023-05-20T18:18:52.665Z,60.80
2023-05-20T18:21:32.650Z,60.90
2023-05-20T18:24:20.632Z,61.10
2023-05-20T18:27:00.607Z,61.10
2023-05-20T18:29:47.933Z,62.10
2023-05-20T18:32:35.618Z,61.10
2023-05-20T18:35:15.849Z,61.40
2023-05-20T18:38:02.652Z,61.50
2023-05-20T18:40:42.677Z,61.80
2023-05-20T18:43:29.604Z,61.80
2023-05-20T18:46:09.768Z,61.90
2023-05-20T18:48:56.600Z,62.20
2023-05-20T18:51:36.804Z,62.20
2023-05-20T18:54:23.617Z,62.60
2023-05-20T18:57:05.087Z,62.60
2023-05-20T18:59:51.622Z,62.70
2023-05-20T19:02:38.759Z,62.70
2023-05-20T19:05:26.105Z,62.70
2023-05-20T19:08:06.619Z,62.80
2023-05-20T19:10:53.771Z,62.90
2023-05-20T19:13:33.788Z,63.30
2023-05-20T19:16:20.746Z,63.30
2023-05-20T19:19:00.677Z,63.90
2023-05-20T19:21:48.294Z,64.00
2023-05-20T19:24:27.696Z,63.70
2023-05-20T19:27:14.768Z,63.90
2023-05-20T19:29:54.643Z,63.90
2023-05-20T19:32:48.777Z,64.30
2023-05-20T19:35:36.988Z,64.20
2023-05-20T19:38:17.031Z,64.60
2023-05-20T19:41:05.040Z,64.90
2023-05-20T19:43:44.936Z,65.00
2023-05-20T19:46:31.780Z,65.30
2023-05-20T19:49:18.682Z,65.30
2023-05-20T19:52:05.815Z,65.60
2023-05-20T19:54:46.159Z,65.80
2023-05-20T19:57:32.684Z,65.80
2023-05-20T20:00:13.852Z,66.00
2023-05-20T20:03:00.945Z,65.80
2023-05-20T20:05:47.802Z,66.00
2023-05-20T20:08:34.806Z,66.30
2023-05-20T20:11:15.788Z,66.70
2023-05-20T20:14:02.928Z,67.00
2023-05-20T20:16:43.813Z,67.20
2023-05-20T20:19:30.917Z,67.50
2023-05-20T20:22:10.706Z,67.90
2023-05-20T20:24:50.974Z,68.10
2023-05-20T20:31:06.809Z,68.20
2023-05-20T20:33:53.810Z,68.80
2023-05-20T20:36:34.975Z,69.10
2023-05-20T20:39:25.867Z,69.60
2023-05-20T20:42:06.711Z,69.60
2023-05-20T20:44:55.829Z,69.80
2023-05-20T20:47:38.796Z,70.10
2023-05-20T20:50:25.834Z,70.40
2023-05-20T20:53:12.826Z,70.40
2023-05-20T20:55:59.915Z,70.70
2023-05-20T20:58:41.780Z,70.90
2023-05-20T21:01:22.049Z,71.00
2023-05-20T21:04:08.808Z,71.20
2023-05-20T21:06:56.015Z,71.30
2023-05-20T21:09:35.798Z,71.20
2023-05-20T21:12:16.132Z,71.40
2023-05-20T21:15:02.842Z,72.00
2023-05-20T21:17:43.046Z,71.80
2023-05-20T21:20:29.900Z,71.20
2023-05-20T21:23:17.034Z,71.10
2023-05-20T21:25:57.185Z,71.20
2023-05-20T21:28:43.944Z,71.50
2023-05-20T21:31:23.841Z,71.50
2023-05-20T21:34:17.884Z,71.80
2023-05-20T21:37:04.886Z,72.00
2023-05-20T21:39:44.898Z,71.90
2023-05-20T21:42:31.923Z,72.00
2023-05-20T21:45:12.139Z,72.10
2023-05-20T21:47:58.854Z,72.10
2023-05-20T21:50:39.025Z,72.20
2023-05-20T21:53:25.801Z,72.30
2023-05-20T21:56:12.845Z,72.30
2023-05-20T21:58:59.964Z,72.40
2023-05-20T22:01:39.922Z,72.60
2023-05-20T22:04:28.779Z,72.60
2023-05-20T22:07:08.895Z,71.70
2023-05-20T22:09:55.991Z,71.80
2023-05-20T22:12:35.910Z,72.00
2023-05-20T22:15:23.224Z,72.40
2023-05-20T22:18:06.788Z,72.30
2023-05-20T22:20:55.070Z,72.30
2023-05-20T22:23:34.850Z,72.20
2023-05-20T22:26:22.293Z,72.30
2023-05-20T22:29:01.892Z,72.00
2023-05-20T22:31:49.074Z,71.20
2023-05-20T22:34:35.886Z,71.50
2023-05-20T22:37:23.079Z,71.00
2023-05-20T22:40:03.906Z,71.00
2023-05-20T22:42:44.314Z,70.70
2023-05-20T22:45:31.003Z,70.10
2023-05-20T22:48:11.280Z,69.70
2023-05-20T22:50:57.977Z,70.20
2023-05-20T22:53:52.033Z,69.70
2023-05-20T22:56:39.718Z,69.60
2023-05-20T22:59:19.962Z,69.20
2023-05-20T23:02:02.413Z,68.70
2023-05-20T23:04:49.061Z,68.40
2023-05-20T23:07:36.298Z,68.20
2023-05-20T23:10:15.897Z,68.30
2023-05-20T23:13:03.096Z,68.20
2023-05-20T23:15:43.272Z,68.00
2023-05-20T23:18:30.575Z,67.50
2023-05-20T23:21:10.935Z,67.70
2023-05-20T23:23:58.023Z,67.60
2023-05-20T23:26:42.033Z,67.10
2023-05-20T23:29:22.374Z,66.70
2023-05-20T23:32:09.300Z,66.50
2023-05-20T23:34:56.055Z,66.60
2023-05-20T23:37:35.934Z,66.70
2023-05-20T23:40:23.035Z,67.20
2023-05-20T23:43:03.005Z,67.60
2023-05-20T23:45:50.141Z,68.10
2023-05-20T23:48:33.020Z,68.50
2023-05-20T23:51:20.133Z,69.00
2023-05-20T23:54:00.966Z,69.40
2023-05-20T23:56:48.719Z,69.50
2023-05-20T23:59:28.955Z,70.20
